Time;durP1;ratioP1;P1;durP2;ratioP2;P2;SDS_P1;SDS_P2;PMS_P1;PMS_P2;Temp;Humidity;BMP_temperature;BMP_pressure;BME280_temperature;BME280_humidity;BME280_pressure;Samples;Min_cycle;Max_cycle;Signal;HPM_P1;HPM_P2
2023/06/27 00:00:42;;;;;;;1.00;1.00;;;24.60;69.90;;;;;;5031542;28;45961;-76
2023/06/27 00:03:11;;;;;;;0.90;0.90;;;24.50;69.80;;;;;;5049139;28;43381;-77
2023/06/27 00:05:41;;;;;;;1.00;1.00;;;24.50;70.10;;;;;;5046575;28;43461;-76
2023/06/27 00:08:09;;;;;;;0.90;0.90;;;24.50;70.10;;;;;;5031438;28;43408;-76
2023/06/27 00:10:37;;;;;;;1.13;1.13;;;24.60;69.80;;;;;;5030731;28;44998;-77
2023/06/27 00:13:15;;;;;;;0.90;0.90;;;24.70;69.40;;;;;;5049707;28;43452;-77
2023/06/27 00:15:44;;;;;;;1.00;1.00;;;24.80;69.10;;;;;;5049776;28;43412;-77
2023/06/27 00:18:17;;;;;;;0.90;0.90;;;24.80;68.70;;;;;;5050349;28;43508;-76
2023/06/27 00:20:45;;;;;;;1.00;1.00;;;24.80;68.60;;;;;;5048840;28;43673;-76
2023/06/27 00:23:17;;;;;;;1.10;1.10;;;24.80;69.00;;;;;;5047204;28;43409;-74
2023/06/27 00:25:45;;;;;;;1.10;1.10;;;24.70;69.30;;;;;;5032280;28;43519;-75
2023/06/27 00:28:13;;;;;;;1.00;1.00;;;24.70;69.30;;;;;;5048679;28;43391;-78
2023/06/27 00:30:41;;;;;;;0.93;0.93;;;24.70;69.40;;;;;;5031158;28;45801;-75
2023/06/27 00:33:11;;;;;;;0.90;0.90;;;24.70;69.50;;;;;;5049290;28;43381;-78
2023/06/27 00:35:39;;;;;;;1.00;1.00;;;24.60;69.90;;;;;;5049578;28;43435;-77
2023/06/27 00:38:08;;;;;;;0.90;0.90;;;24.60;69.80;;;;;;5032023;28;43434;-75
2023/06/27 00:40:35;;;;;;;1.07;1.07;;;24.50;69.70;;;;;;5049513;28;43848;-77
2023/06/27 00:43:04;;;;;;;1.00;1.00;;;24.50;69.80;;;;;;5052578;28;44637;-75
2023/06/27 00:45:32;;;;;;;1.13;1.13;;;24.50;70.10;;;;;;5031331;28;43945;-76
2023/06/27 00:48:00;;;;;;;1.00;1.00;;;24.50;70.80;;;;;;5031990;28;43923;-77
2023/06/27 00:50:32;;;;;;;1.00;1.00;;;24.50;70.10;;;;;;5031437;28;45666;-77
2023/06/27 00:53:01;;;;;;;0.97;0.97;;;24.50;69.90;;;;;;5049353;28;43512;-75
2023/06/27 00:55:30;;;;;;;1.03;1.03;;;24.50;70.10;;;;;;5031164;28;43396;-78
2023/06/27 00:57:58;;;;;;;1.17;0.90;;;24.50;70.30;;;;;;5048689;28;43377;-76
2023/06/27 01:00:27;;;;;;;1.03;1.03;;;24.50;70.10;;;;;;5030712;28;45333;-76
2023/06/27 01:02:55;;;;;;;0.90;0.90;;;24.60;69.80;;;;;;5030107;28;45042;-77
2023/06/27 01:05:24;;;;;;;0.90;0.90;;;24.70;69.30;;;;;;5048706;28;43413;-77
2023/06/27 01:07:57;;;;;;;1.00;1.00;;;24.80;68.90;;;;;;5049505;28;43525;-77
2023/06/27 01:10:30;;;;;;;1.00;1.00;;;24.90;68.70;;;;;;5027228;28;45676;-76
2023/06/27 01:13:02;;;;;;;1.23;1.13;;;24.90;68.50;;;;;;5052851;28;44637;-77
2023/06/27 01:15:30;;;;;;;0.85;0.85;;;24.80;68.90;;;;;;5051129;28;43419;-76
2023/06/27 01:17:58;;;;;;;0.90;0.90;;;24.80;69.10;;;;;;5031240;28;43493;-76
2023/06/27 01:20:27;;;;;;;1.17;1.17;;;24.80;69.00;;;;;;5026928;28;46061;-78
2023/06/27 01:23:05;;;;;;;0.70;0.70;;;24.70;69.00;;;;;;5030980;28;44689;-76
2023/06/27 01:25:37;;;;;;;1.03;1.03;;;24.70;69.40;;;;;;5046816;28;43449;-75
2023/06/27 01:28:07;;;;;;;1.00;1.00;;;24.60;69.60;;;;;;5031141;28;43539;-76
2023/06/27 01:30:35;;;;;;;1.00;1.00;;;24.60;69.60;;;;;;5048780;28;44039;-76
2023/06/27 01:33:05;;;;;;;0.80;0.80;;;24.60;69.60;;;;;;5050512;28;43382;-77
2023/06/27 01:35:35;;;;;;;1.00;1.00;;;24.50;69.90;;;;;;5035084;28;43405;-78
2023/06/27 01:38:05;;;;;;;1.00;1.00;;;24.50;69.90;;;;;;5052182;28;43415;-77
2023/06/27 01:40:36;;;;;;;0.98;0.98;;;24.60;69.70;;;;;;5045007;28;43748;-77
2023/06/27 01:43:07;;;;;;;0.90;0.90;;;24.70;69.50;;;;;;5055012;28;44410;-77
2023/06/27 01:45:35;;;;;;;0.90;0.90;;;24.70;69.10;;;;;;5060567;28;43469;-76
2023/06/27 01:48:06;;;;;;;1.05;1.00;;;24.80;69.00;;;;;;5034122;28;43465;-76
2023/06/27 01:50:34;;;;;;;0.87;0.87;;;24.80;68.80;;;;;;5051650;28;44170;-75
2023/06/27 01:53:02;;;;;;;1.00;1.00;;;24.70;69.10;;;;;;5048467;28;43937;-76
2023/06/27 01:55:32;;;;;;;1.00;1.00;;;24.70;69.50;;;;;;5033976;28;43435;-76
2023/06/27 01:58:02;;;;;;;1.10;1.10;;;24.60;69.40;;;;;;5034446;28;43551;-76
2023/06/27 02:00:30;;;;;;;0.90;0.90;;;24.60;69.40;;;;;;5033799;28;45608;-77
2023/06/27 02:02:58;;;;;;;0.90;0.90;;;24.60;69.60;;;;;;5050141;28;43428;-76
2023/06/27 02:05:26;;;;;;;0.90;0.90;;;24.50;69.90;;;;;;5032448;28;43451;-78
2023/06/27 02:07:54;;;;;;;1.00;1.00;;;24.50;69.70;;;;;;5032745;28;43472;-76
2023/06/27 02:10:25;;;;;;;0.93;0.93;;;24.60;69.40;;;;;;5032755;28;45156;-76
2023/06/27 02:12:53;;;;;;;1.07;1.00;;;24.80;69.20;;;;;;5032533;28;44745;-76
2023/06/27 02:15:22;;;;;;;1.08;1.08;;;24.80;69.00;;;;;;5034432;28;43517;-77
2023/06/27 02:17:50;;;;;;;0.90;0.90;;;24.80;68.80;;;;;;5056955;28;43403;-76
2023/06/27 02:20:21;;;;;;;1.00;1.00;;;24.70;68.80;;;;;;5028618;28;45403;-77
2023/06/27 02:22:49;;;;;;;0.80;0.80;;;24.70;69.30;;;;;;5047989;28;43413;-77
2023/06/27 02:25:17;;;;;;;1.10;1.10;;;24.60;69.30;;;;;;5049368;28;43394;-77
2023/06/27 02:27:46;;;;;;;1.00;1.00;;;24.60;69.30;;;;;;5051335;28;43446;-75
2023/06/27 02:30:14;;;;;;;0.80;0.80;;;24.60;69.40;;;;;;5032890;28;45663;-78
2023/06/27 02:32:43;;;;;;;1.10;1.10;;;24.50;69.80;;;;;;5032045;28;44919;-77
2023/06/27 02:35:15;;;;;;;0.82;0.82;;;24.50;69.90;;;;;;5052060;28;43481;-76
2023/06/27 02:37:43;;;;;;;0.70;0.70;;;24.50;69.80;;;;;;5050843;28;43427;-77
2023/06/27 02:40:12;;;;;;;1.00;1.00;;;24.50;69.80;;;;;;5031791;28;45787;-77
2023/06/27 02:42:40;;;;;;;0.90;0.90;;;24.50;70.00;;;;;;5050222;28;43409;-78
2023/06/27 02:45:09;;;;;;;1.00;1.00;;;24.40;70.10;;;;;;5031868;28;43336;-76
2023/06/27 02:47:37;;;;;;;0.90;0.90;;;24.50;69.90;;;;;;5050371;28;43619;-77
2023/06/27 02:50:07;;;;;;;1.00;1.00;;;24.50;69.70;;;;;;5058478;28;46054;-77
2023/06/27 02:52:35;;;;;;;0.80;0.80;;;24.70;69.40;;;;;;5043708;28;43465;-76
2023/06/27 02:55:03;;;;;;;0.95;0.95;;;24.70;69.00;;;;;;5031686;28;43444;-78
2023/06/27 02:57:31;;;;;;;0.80;0.80;;;24.80;68.90;;;;;;5025151;28;43483;-76
2023/06/27 03:00:03;;;;;;;0.90;0.90;;;24.70;68.70;;;;;;5038891;28;44025;-76
2023/06/27 03:02:31;;;;;;;0.90;0.90;;;24.70;69.30;;;;;;4992709;28;1096337;-76
2023/06/27 03:04:59;;;;;;;1.13;1.13;;;24.60;69.30;;;;;;5050611;28;43410;-77
2023/06/27 03:07:29;;;;;;;1.00;1.00;;;24.60;69.30;;;;;;5032771;28;43391;-77
2023/06/27 03:09:57;;;;;;;0.83;0.83;;;24.60;69.30;;;;;;5050531;28;43839;-76
2023/06/27 03:12:25;;;;;;;0.83;0.83;;;24.50;69.30;;;;;;5032411;28;43403;-75
2023/06/27 03:14:53;;;;;;;1.00;1.00;;;24.50;70.00;;;;;;5035270;28;43492;-76
2023/06/27 03:17:22;;;;;;;1.10;1.10;;;24.50;69.80;;;;;;5032934;28;43956;-77
2023/06/27 03:19:50;;;;;;;1.00;1.00;;;24.50;69.80;;;;;;5031864;28;45050;-77
2023/06/27 03:22:18;;;;;;;0.90;0.90;;;24.40;69.60;;;;;;5027340;28;44725;-76
2023/06/27 03:24:48;;;;;;;1.10;1.10;;;24.40;70.10;;;;;;5050372;28;43377;-77
2023/06/27 03:27:20;;;;;;;0.97;0.97;;;24.40;70.00;;;;;;5032746;28;43530;-77
2023/06/27 03:29:47;;;;;;;1.10;1.10;;;24.50;69.80;;;;;;5050279;28;43789;-77
2023/06/27 03:32:16;;;;;;;0.93;0.93;;;24.60;69.50;;;;;;5026422;28;43383;-76
2023/06/27 03:34:44;;;;;;;0.80;0.80;;;24.70;69.10;;;;;;5048622;28;43445;-76
2023/06/27 03:37:12;;;;;;;1.00;1.00;;;24.70;68.70;;;;;;5049310;28;43426;-78
2023/06/27 03:39:41;;;;;;;0.80;0.80;;;24.70;68.40;;;;;;5031558;28;43930;-76
2023/06/27 03:42:10;;;;;;;1.07;1.03;;;24.70;68.40;;;;;;5049846;28;43443;-78
2023/06/27 03:44:38;;;;;;;0.93;0.93;;;24.70;69.30;;;;;;5049320;28;43293;-77
2023/06/27 03:47:07;;;;;;;0.95;0.95;;;24.60;69.00;;;;;;5054487;28;43461;-78
2023/06/27 03:49:37;;;;;;;1.10;1.10;;;24.60;69.00;;;;;;5031744;28;44086;-76
2023/06/27 03:52:05;;;;;;;1.10;1.10;;;24.50;69.10;;;;;;5031938;28;44822;-77
2023/06/27 03:54:33;;;;;;;1.10;1.10;;;24.50;69.70;;;;;;5032964;28;43440;-75
2023/06/27 03:57:01;;;;;;;1.63;1.40;;;24.50;69.50;;;;;;5038239;28;43489;-76
2023/06/27 03:59:31;;;;;;;1.53;1.20;;;24.50;69.50;;;;;;5033387;28;46491;-76
2023/06/27 04:01:59;;;;;;;2.07;1.50;;;24.40;70.20;;;;;;5038503;28;44749;-74
2023/06/27 04:04:27;;;;;;;6.63;2.80;;;24.40;69.70;;;;;;5038403;28;43360;-75
2023/06/27 04:06:56;;;;;;;11.70;3.37;;;24.40;69.70;;;;;;5036935;28;43451;-74
2023/06/27 04:09:25;;;;;;;9.13;3.90;;;24.40;69.30;;;;;;5047891;28;43874;-76
2023/06/27 04:11:53;;;;;;;11.57;4.37;;;24.50;69.00;;;;;;5059084;28;44390;-76
2023/06/27 04:14:24;;;;;;;9.53;4.20;;;24.70;68.70;;;;;;5034533;28;43447;-76
2023/06/27 04:16:56;;;;;;;8.33;3.90;;;24.70;68.50;;;;;;5029768;28;43601;-76
2023/06/27 04:19:24;;;;;;;8.50;3.93;;;24.70;68.20;;;;;;5031102;28;45324;-77
2023/06/27 04:21:53;;;;;;;6.28;4.25;;;24.60;68.30;;;;;;5032208;28;43394;-77
2023/06/27 04:24:22;;;;;;;7.90;4.23;;;24.60;68.90;;;;;;5032368;28;43396;-76
2023/06/27 04:26:50;;;;;;;10.77;4.40;;;24.50;68.70;;;;;;5048371;28;43890;-77
2023/06/27 04:29:18;;;;;;;6.70;4.15;;;24.50;68.90;;;;;;5030305;28;45888;-75
2023/06/27 04:31:46;;;;;;;8.93;4.57;;;24.50;68.80;;;;;;5032143;28;45092;-76
2023/06/27 04:34:16;;;;;;;7.80;4.30;;;24.40;69.30;;;;;;5031881;28;43404;-76
2023/06/27 04:36:44;;;;;;;10.10;4.20;;;24.40;69.10;;;;;;5054505;28;43386;-78
2023/06/27 04:39:12;;;;;;;4.93;4.03;;;24.40;69.20;;;;;;5050352;28;43994;-77
2023/06/27 04:41:40;;;;;;;6.90;4.67;;;24.40;69.00;;;;;;5050233;28;43464;-77
2023/06/27 04:44:09;;;;;;;9.17;4.83;;;24.40;69.60;;;;;;5032332;28;43472;-76
2023/06/27 04:46:37;;;;;;;8.37;4.50;;;24.40;69.40;;;;;;5032442;28;43425;-77
2023/06/27 04:49:05;;;;;;;7.57;4.70;;;24.40;69.50;;;;;;5050153;28;43544;-76
2023/06/27 04:51:34;;;;;;;6.30;4.50;;;24.40;69.50;;;;;;5028358;28;44714;-76
2023/06/27 04:54:02;;;;;;;10.57;5.50;;;24.30;69.80;;;;;;5048601;28;43393;-76
2023/06/27 04:56:30;;;;;;;5.27;4.50;;;24.30;69.70;;;;;;5033022;28;43427;-77
2023/06/27 04:58:58;;;;;;;5.13;4.43;;;24.40;69.30;;;;;;5054412;28;46136;-76
2023/06/27 05:01:26;;;;;;;7.73;4.80;;;24.50;69.10;;;;;;5030452;28;45186;-78
2023/06/27 05:04:00;;;;;;;8.50;4.70;;;24.60;68.80;;;;;;5050086;28;43402;-76
2023/06/27 05:06:28;;;;;;;7.20;5.17;;;24.70;68.40;;;;;;5050470;28;43467;-77
2023/06/27 05:08:58;;;;;;;4.80;4.40;;;24.70;68.40;;;;;;5050766;28;43746;-77
2023/06/27 05:11:26;;;;;;;6.78;4.15;;;24.70;68.50;;;;;;5049951;28;43568;-77
2023/06/27 05:13:54;;;;;;;6.78;4.18;;;24.70;68.90;;;;;;5034385;28;43497;-77
2023/06/27 05:16:22;;;;;;;5.73;4.00;;;24.60;68.90;;;;;;5051751;28;43357;-76
2023/06/27 05:18:50;;;;;;;5.82;4.10;;;24.60;69.00;;;;;;5049944;28;43695;-76
2023/06/27 05:21:18;;;;;;;4.50;4.10;;;24.50;68.90;;;;;;5049870;28;43405;-77
2023/06/27 05:23:46;;;;;;;5.03;4.27;;;24.50;69.40;;;;;;5049570;28;43337;-77
2023/06/27 05:26:15;;;;;;;5.43;4.07;;;24.50;69.50;;;;;;5032372;28;43444;-76
2023/06/27 05:28:43;;;;;;;5.47;4.20;;;24.50;69.50;;;;;;5049389;28;46338;-76
2023/06/27 05:31:11;;;;;;;5.80;4.20;;;24.40;69.40;;;;;;5031174;28;44409;-78
2023/06/27 05:33:40;;;;;;;5.30;4.20;;;24.40;69.40;;;;;;5031475;28;43394;-77
2023/06/27 05:36:08;;;;;;;5.93;4.40;;;24.40;69.80;;;;;;5032528;28;43413;-78
2023/06/27 05:38:36;;;;;;;5.00;3.73;;;24.40;69.80;;;;;;5025171;28;45377;-78
2023/06/27 05:41:03;;;;;;;3.93;3.53;;;24.40;69.90;;;;;;5049366;28;43460;-76
2023/06/27 05:43:33;;;;;;;4.40;4.00;;;24.40;69.70;;;;;;5058191;28;43415;-79
2023/06/27 05:46:01;;;;;;;3.83;3.50;;;24.30;70.70;;;;;;5032108;28;43914;-78
2023/06/27 05:48:29;;;;;;;4.57;3.73;;;24.30;70.00;;;;;;5049162;28;43671;-75
2023/06/27 05:50:57;;;;;;;3.80;3.40;;;24.40;69.70;;;;;;5049210;28;43379;-77
2023/06/27 05:53:25;;;;;;;4.77;3.70;;;24.50;69.40;;;;;;5031713;28;43507;-76
2023/06/27 05:55:53;;;;;;;4.10;3.73;;;24.60;69.10;;;;;;5050173;28;43965;-78
2023/06/27 05:58:21;;;;;;;4.07;3.67;;;24.70;68.80;;;;;;5052467;28;45936;-77
2023/06/27 06:00:51;;;;;;;4.63;3.70;;;24.70;68.70;;;;;;5031811;28;44742;-75
2023/06/27 06:03:19;;;;;;;4.20;3.40;;;24.70;68.90;;;;;;5031296;28;43475;-77
2023/06/27 06:05:47;;;;;;;4.87;3.97;;;24.60;69.10;;;;;;5031143;28;43419;-77
2023/06/27 06:08:15;;;;;;;3.97;3.63;;;24.60;69.20;;;;;;5031348;28;44747;-76
2023/06/27 06:10:45;;;;;;;4.17;3.60;;;24.50;69.20;;;;;;5049422;28;43369;-78
2023/06/27 06:13:13;;;;;;;3.85;3.55;;;24.50;69.10;;;;;;5043184;28;43401;-78
2023/06/27 06:15:41;;;;;;;3.50;3.30;;;24.50;69.70;;;;;;5053326;28;43578;-77
2023/06/27 06:18:11;;;;;;;3.70;3.30;;;24.40;69.80;;;;;;5032582;28;45379;-77
2023/06/27 06:20:39;;;;;;;4.10;3.70;;;24.40;69.70;;;;;;5034704;28;45041;-77
2023/06/27 06:23:07;;;;;;;3.97;3.60;;;24.40;69.60;;;;;;5052985;28;43393;-76
2023/06/27 06:25:35;;;;;;;3.85;3.50;;;24.40;69.60;;;;;;5035030;28;43496;-76
2023/06/27 06:28:03;;;;;;;3.83;3.50;;;24.40;70.10;;;;;;5034501;28;45577;-78
2023/06/27 06:30:31;;;;;;;3.60;3.30;;;24.40;70.00;;;;;;5052832;28;43443;-75
2023/06/27 06:33:40;;;;;;;3.03;2.83;;;24.50;69.70;;;;;;5052507;28;43367;-76
2023/06/27 06:36:10;;;;;;;3.07;2.87;;;24.60;69.30;;;;;;5050998;28;43529;-77
2023/06/27 06:38:38;;;;;;;3.37;3.07;;;24.70;69.10;;;;;;5034537;28;45798;-77
2023/06/27 06:41:06;;;;;;;3.58;3.28;;;24.70;69.00;;;;;;5034775;28;44706;-77
2023/06/27 06:43:34;;;;;;;3.53;3.07;;;24.60;69.00;;;;;;5034566;28;43405;-78
2023/06/27 06:46:02;;;;;;;3.13;2.93;;;24.60;69.40;;;;;;5052896;28;43613;-77
2023/06/27 06:48:30;;;;;;;3.00;2.83;;;24.50;69.40;;;;;;5047619;28;43602;-78
2023/06/27 06:50:58;;;;;;;3.50;3.30;;;24.50;70.20;;;;;;5052221;28;43393;-75
2023/06/27 06:53:27;;;;;;;3.17;2.90;;;24.50;69.40;;;;;;5052734;28;43410;-75
2023/06/27 06:55:56;;;;;;;3.00;2.80;;;24.40;69.80;;;;;;5034576;28;43503;-77
2023/06/27 06:58:24;;;;;;;3.10;2.90;;;24.40;69.90;;;;;;5052106;28;43669;-77
2023/06/27 07:00:52;;;;;;;3.10;2.90;;;24.40;69.90;;;;;;5052508;28;43443;-75
2023/06/27 07:03:20;;;;;;;3.40;3.20;;;24.40;69.60;;;;;;5046953;28;43481;-75
2023/06/27 07:05:48;;;;;;;3.33;3.10;;;24.30;70.00;;;;;;5049667;28;43601;-76
2023/06/27 07:08:16;;;;;;;3.13;3.00;;;24.30;70.20;;;;;;5049397;28;43587;-77
2023/06/27 07:10:46;;;;;;;3.30;3.10;;;24.30;70.20;;;;;;5034213;28;44351;-77
2023/06/27 07:13:14;;;;;;;3.00;2.80;;;24.30;69.90;;;;;;5034498;28;43433;-76
2023/06/27 07:15:42;;;;;;;3.03;2.83;;;24.30;70.00;;;;;;5056623;28;43515;-76
2023/06/27 07:18:11;;;;;;;3.00;2.80;;;24.30;70.30;;;;;;5047522;28;43854;-77
2023/06/27 07:20:39;;;;;;;3.40;3.20;;;24.30;70.10;;;;;;5033237;28;44763;-77
2023/06/27 07:23:07;;;;;;;2.90;2.70;;;24.40;69.80;;;;;;5052025;28;43437;-75
2023/06/27 07:25:36;;;;;;;2.80;2.70;;;24.50;69.50;;;;;;5052782;28;43882;-75
2023/06/27 07:28:06;;;;;;;2.83;2.73;;;24.60;69.10;;;;;;5027420;28;45550;-77
2023/06/27 07:30:34;;;;;;;2.53;2.43;;;24.70;69.00;;;;;;5042052;28;43449;-77
2023/06/27 07:33:04;;;;;;;3.30;3.10;;;24.60;69.00;;;;;;5052241;28;43425;-76
2023/06/27 07:35:32;;;;;;;2.73;2.60;;;24.50;69.20;;;;;;5033535;28;43363;-76
2023/06/27 07:38:00;;;;;;;3.10;2.90;;;24.50;69.40;;;;;;5051689;28;43608;-77
2023/06/27 07:40:28;;;;;;;3.07;2.87;;;24.50;69.50;;;;;;5050705;28;43509;-76
2023/06/27 07:42:56;;;;;;;2.63;2.53;;;24.50;69.30;;;;;;5051646;28;43380;-78
2023/06/27 07:45:27;;;;;;;2.50;2.40;;;24.40;69.60;;;;;;5030471;28;43515;-77
2023/06/27 07:47:55;;;;;;;2.95;2.75;;;24.40;70.00;;;;;;5051123;28;43878;-78
2023/06/27 07:50:23;;;;;;;2.53;2.43;;;24.40;70.00;;;;;;5051534;28;43985;-77
2023/06/27 07:52:51;;;;;;;2.67;2.58;;;24.40;69.70;;;;;;5033050;28;43524;-78
2023/06/27 07:55:19;;;;;;;2.57;2.47;;;24.30;69.60;;;;;;5053002;28;43373;-77
2023/06/27 07:57:47;;;;;;;2.43;2.33;;;24.30;70.20;;;;;;5051299;28;43792;-76
2023/06/27 08:00:16;;;;;;;3.00;2.80;;;24.30;70.10;;;;;;5032969;28;45001;-78
2023/06/27 08:02:46;;;;;;;2.70;2.60;;;24.40;69.80;;;;;;5051132;28;44024;-77
2023/06/27 08:05:14;;;;;;;2.73;2.63;;;24.50;69.50;;;;;;5033645;28;43484;-78
2023/06/27 08:07:42;;;;;;;2.42;2.35;;;24.60;69.30;;;;;;5050949;28;43976;-78
2023/06/27 08:10:11;;;;;;;2.33;2.23;;;24.60;69.20;;;;;;5033320;28;45422;-78
2023/06/27 08:12:39;;;;;;;2.40;2.30;;;24.50;69.00;;;;;;5049683;28;43467;-78
2023/06/27 08:15:09;;;;;;;2.53;2.43;;;24.50;69.50;;;;;;5055358;28;43338;-78
2023/06/27 08:17:37;;;;;;;2.40;2.30;;;24.50;69.70;;;;;;5051127;28;43809;-78
2023/06/27 08:20:08;;;;;;;2.53;2.43;;;24.50;69.70;;;;;;5051128;28;43967;-78
2023/06/27 08:22:36;;;;;;;2.40;2.30;;;24.40;69.50;;;;;;5050808;28;43488;-76
2023/06/27 08:25:04;;;;;;;2.67;2.57;;;24.40;70.00;;;;;;5052023;28;43555;-75
2023/06/27 08:27:32;;;;;;;2.40;2.30;;;24.30;70.00;;;;;;5050696;28;43742;-77
2023/06/27 08:30:00;;;;;;;2.40;2.30;;;24.30;70.00;;;;;;5032940;28;44306;-77
2023/06/27 08:32:28;;;;;;;2.40;2.30;;;24.30;69.70;;;;;;5032825;28;43440;-76
2023/06/27 08:34:58;;;;;;;2.43;2.33;;;24.30;70.30;;;;;;5050827;28;43586;-76
2023/06/27 08:37:27;;;;;;;2.40;2.30;;;24.30;70.40;;;;;;5048815;28;43587;-76
2023/06/27 08:39:55;;;;;;;2.30;2.20;;;24.30;70.10;;;;;;5050956;28;43349;-77
2023/06/27 08:42:23;;;;;;;2.40;2.30;;;24.40;70.60;;;;;;5051185;28;43397;-78
2023/06/27 08:44:51;;;;;;;2.47;2.37;;;24.50;69.50;;;;;;5051304;28;43908;-76
2023/06/27 08:47:20;;;;;;;2.30;2.20;;;24.60;69.40;;;;;;5050371;28;43624;-77
2023/06/27 08:49:50;;;;;;;2.03;2.03;;;24.60;69.30;;;;;;5032663;28;44652;-77
2023/06/27 08:52:19;;;;;;;2.30;2.20;;;24.50;69.20;;;;;;5032760;28;43360;-78
2023/06/27 08:54:52;;;;;;;2.20;2.20;;;24.50;69.70;;;;;;5029237;28;43481;-76
2023/06/27 08:57:21;;;;;;;1.93;1.93;;;24.40;69.60;;;;;;5030653;28;45972;-76
2023/06/27 08:59:50;;;;;;;1.90;1.90;;;24.40;69.60;;;;;;5051196;28;43459;-78
2023/06/27 09:02:18;;;;;;;2.10;2.00;;;24.40;69.60;;;;;;5050598;28;43422;-75
2023/06/27 09:04:46;;;;;;;1.97;1.97;;;24.30;70.00;;;;;;5032522;28;43507;-77
2023/06/27 09:07:14;;;;;;;2.13;2.13;;;24.30;70.10;;;;;;5032082;28;45531;-78
2023/06/27 09:09:42;;;;;;;2.13;2.13;;;24.30;70.10;;;;;;5045034;28;43384;-76
2023/06/27 09:12:12;;;;;;;2.20;2.10;;;24.30;70.00;;;;;;5050827;28;43341;-78
2023/06/27 09:14:40;;;;;;;1.93;1.93;;;24.30;70.20;;;;;;5034293;28;43489;-76
2023/06/27 09:17:08;;;;;;;2.10;2.10;;;24.20;70.40;;;;;;5048259;28;46197;-76
2023/06/27 09:19:37;;;;;;;2.00;2.00;;;24.20;70.20;;;;;;5030066;28;44751;-76
2023/06/27 09:22:06;;;;;;;2.00;1.90;;;24.40;70.00;;;;;;5032274;28;43905;-77
2023/06/27 09:24:40;;;;;;;2.20;2.20;;;24.50;69.80;;;;;;5032483;28;43484;-78
2023/06/27 09:27:08;;;;;;;2.30;2.20;;;24.50;69.50;;;;;;5049777;28;44052;-76
2023/06/27 09:29:38;;;;;;;1.90;1.90;;;24.50;69.40;;;;;;5031919;28;43859;-78
2023/06/27 09:32:08;;;;;;;1.90;1.90;;;24.50;69.40;;;;;;5050202;28;43384;-76
2023/06/27 09:34:37;;;;;;;1.93;1.93;;;24.40;69.70;;;;;;5026670;28;43478;-77
2023/06/27 09:37:05;;;;;;;2.07;2.07;;;24.40;69.90;;;;;;5031872;28;46042;-78
2023/06/27 09:39:36;;;;;;;1.70;1.70;;;24.40;69.90;;;;;;5043540;28;43377;-76
2023/06/27 09:42:04;;;;;;;1.90;1.90;;;24.30;69.70;;;;;;5048629;28;43326;-77
2023/06/27 09:44:32;;;;;;;2.03;2.03;;;24.30;70.10;;;;;;5044239;28;43414;-77
2023/06/27 09:47:03;;;;;;;2.00;2.00;;;24.30;70.40;;;;;;5050441;28;43602;-77
2023/06/27 09:49:31;;;;;;;1.80;1.80;;;24.20;70.20;;;;;;5050332;28;43477;-75
2023/06/27 09:51:59;;;;;;;1.80;1.80;;;24.20;70.00;;;;;;5047313;28;44022;-76
2023/06/27 09:54:27;;;;;;;1.97;1.97;;;24.20;70.00;;;;;;5034384;28;43466;-77
2023/06/27 09:56:56;;;;;;;2.23;2.13;;;24.20;70.60;;;;;;5053639;28;43612;-78
2023/06/27 09:59:26;;;;;;;1.90;1.90;;;24.20;70.40;;;;;;5053619;28;43407;-78
2023/06/27 10:01:54;;;;;;;1.90;1.90;;;24.30;70.10;;;;;;5053136;28;43376;-75
2023/06/27 10:04:24;;;;;;;1.90;1.80;;;24.40;69.70;;;;;;5035455;28;43402;-77
2023/06/27 10:06:55;;;;;;;1.90;1.80;;;24.50;69.50;;;;;;5053900;28;43795;-75
2023/06/27 10:09:23;;;;;;;1.90;1.90;;;24.50;69.50;;;;;;5053309;28;43440;-77
2023/06/27 10:11:51;;;;;;;2.10;2.00;;;24.50;69.50;;;;;;5053589;28;43359;-77
2023/06/27 10:14:20;;;;;;;2.07;2.00;;;24.40;69.70;;;;;;5039510;28;43598;-76
2023/06/27 10:16:48;;;;;;;1.60;1.60;;;24.40;70.00;;;;;;5052720;28;43602;-76
2023/06/27 10:19:16;;;;;;;1.70;1.70;;;24.30;69.90;;;;;;5035084;28;43951;-77
2023/06/27 10:21:46;;;;;;;1.90;1.90;;;24.30;69.90;;;;;;5052997;28;43412;-77
2023/06/27 10:24:14;;;;;;;2.00;2.00;;;24.30;69.90;;;;;;5054138;28;43354;-77
2023/06/27 10:26:42;;;;;;;1.50;1.50;;;24.20;70.40;;;;;;5053356;28;43966;-76
2023/06/27 10:29:16;;;;;;;1.60;1.60;;;24.20;70.30;;;;;;5030904;28;44821;-77
2023/06/27 10:31:45;;;;;;;1.63;1.63;;;24.20;70.10;;;;;;5035181;28;43392;-77
2023/06/27 10:34:20;;;;;;;1.90;1.90;;;24.20;70.00;;;;;;5035199;28;43500;-77
2023/06/27 10:36:59;;;;;;;1.60;1.60;;;24.20;70.80;;;;;;5052838;28;43587;-76
2023/06/27 10:39:28;;;;;;;1.50;1.50;;;24.20;70.60;;;;;;5052952;28;43322;-78
2023/06/27 10:42:04;;;;;;;1.63;1.63;;;24.10;70.20;;;;;;5052705;28;43522;-76
2023/06/27 10:44:32;;;;;;;1.87;1.87;;;24.10;70.00;;;;;;5029133;28;43516;-78
2023/06/27 10:47:29;;;;;;;1.67;1.67;;;24.10;70.70;;;;;;5046259;28;44025;-77
2023/06/27 10:50:04;;;;;;;1.70;1.70;;;24.20;70.70;;;;;;5052410;28;43355;-77
2023/06/27 10:52:33;;;;;;;1.87;1.83;;;24.30;70.30;;;;;;5053036;28;43369;-77
2023/06/27 10:55:23;;;;;;;1.57;1.57;;;24.40;70.00;;;;;;5047112;28;43364;-77
2023/06/27 10:57:58;;;;;;;1.60;1.60;;;24.50;69.60;;;;;;5034554;28;44739;-77
2023/06/27 11:00:28;;;;;;;1.70;1.70;;;24.50;69.40;;;;;;5052919;28;44062;-77
2023/06/27 11:02:57;;;;;;;1.53;1.53;;;24.50;69.50;;;;;;5046140;28;43447;-77
2023/06/27 11:05:40;;;;;;;1.60;1.60;;;24.40;69.70;;;;;;5034443;28;43512;-75
2023/06/27 11:08:11;;;;;;;1.40;1.40;;;24.40;69.80;;;;;;5048583;28;43928;-75
2023/06/27 11:10:48;;;;;;;1.60;1.60;;;24.40;69.90;;;;;;5052500;28;43310;-76
2023/06/27 11:13:17;;;;;;;1.40;1.40;;;24.30;69.60;;;;;;5051887;28;43531;-77
2023/06/27 11:15:45;;;;;;;1.63;1.57;;;24.30;70.20;;;;;;5032896;28;43482;-76
2023/06/27 11:18:15;;;;;;;1.53;1.53;;;24.20;70.30;;;;;;5049592;28;43604;-75
2023/06/27 11:20:43;;;;;;;1.50;1.50;;;24.30;70.30;;;;;;5047545;28;43415;-74
2023/06/27 11:23:12;;;;;;;1.60;1.60;;;24.20;69.90;;;;;;5036326;28;43336;-75
2023/06/27 11:25:42;;;;;;;1.70;1.70;;;24.20;70.00;;;;;;5033194;28;43558;-77
2023/06/27 11:28:11;;;;;;;1.43;1.43;;;24.20;70.70;;;;;;5033717;28;45627;-75
2023/06/27 11:30:39;;;;;;;1.53;1.53;;;24.20;70.50;;;;;;5032582;28;44983;-74
2023/06/27 11:33:08;;;;;;;1.43;1.43;;;24.30;70.20;;;;;;5032982;28;43374;-77
2023/06/27 11:35:39;;;;;;;1.40;1.40;;;24.40;69.60;;;;;;5033821;28;43874;-76
2023/06/27 11:38:08;;;;;;;1.60;1.60;;;24.40;69.40;;;;;;5052061;28;43879;-76
2023/06/27 11:40:37;;;;;;;1.60;1.60;;;24.40;69.20;;;;;;5033145;28;44772;-76
2023/06/27 11:43:06;;;;;;;1.70;1.70;;;24.40;69.30;;;;;;5051396;28;43451;-75
2023/06/27 11:45:36;;;;;;;1.80;1.70;;;24.30;69.70;;;;;;5048302;28;44269;-76
2023/06/27 11:48:04;;;;;;;1.50;1.50;;;24.30;69.80;;;;;;5050872;28;43878;-77
2023/06/27 11:50:32;;;;;;;1.50;1.50;;;24.30;69.70;;;;;;5051348;28;43394;-77
2023/06/27 11:53:00;;;;;;;1.57;1.57;;;24.30;69.50;;;;;;5051363;28;43405;-77
2023/06/27 11:55:29;;;;;;;1.40;1.40;;;24.20;69.80;;;;;;5033399;28;44119;-77
2023/06/27 11:57:59;;;;;;;1.70;1.60;;;24.20;70.10;;;;;;5050111;28;43610;-76
2023/06/27 12:00:28;;;;;;;1.30;1.30;;;24.20;70.10;;;;;;5051604;28;43392;-76
2023/06/27 12:02:57;;;;;;;1.53;1.53;;;24.20;69.70;;;;;;5034262;28;43459;-77
2023/06/27 12:05:26;;;;;;;1.40;1.40;;;24.10;69.00;;;;;;5034122;28;44029;-77
2023/06/27 12:08:01;;;;;;;1.63;1.63;;;24.10;70.20;;;;;;5059218;28;45732;-76
2023/06/27 12:10:30;;;;;;;1.67;1.67;;;24.20;70.20;;;;;;5028963;28;44655;-77
2023/06/27 12:12:59;;;;;;;1.60;1.60;;;24.30;69.60;;;;;;5050904;28;43424;-76
2023/06/27 12:15:27;;;;;;;1.60;1.60;;;24.40;69.20;;;;;;5037006;28;43516;-76
2023/06/27 12:17:59;;;;;;;1.60;1.60;;;24.40;69.20;;;;;;5051087;28;43781;-77
2023/06/27 12:20:28;;;;;;;3.20;1.60;;;24.40;69.10;;;;;;5052549;28;43395;-76
2023/06/27 12:22:56;;;;;;;1.70;1.70;;;24.30;68.90;;;;;;5029395;28;43987;-74
2023/06/27 12:25:24;;;;;;;1.50;1.50;;;24.30;69.60;;;;;;5049367;28;43494;-75
2023/06/27 12:27:52;;;;;;;1.40;1.40;;;24.30;69.60;;;;;;5027899;28;45733;-75
2023/06/27 12:30:22;;;;;;;1.48;1.48;;;24.20;69.20;;;;;;5028867;28;45084;-74
2023/06/27 12:32:50;;;;;;;1.63;1.63;;;24.20;69.00;;;;;;5048417;28;43444;-77
2023/06/27 12:35:18;;;;;;;1.67;1.58;;;24.20;69.80;;;;;;5050083;28;43498;-77
2023/06/27 12:37:46;;;;;;;1.30;1.30;;;24.20;69.90;;;;;;5051516;28;43925;-77
2023/06/27 12:40:15;;;;;;;1.50;1.50;;;24.10;69.60;;;;;;5050229;28;43543;-76
2023/06/27 12:42:46;;;;;;;1.50;1.50;;;24.10;69.20;;;;;;5054973;28;43508;-76
2023/06/27 12:45:14;;;;;;;1.50;1.50;;;24.10;69.80;;;;;;5055677;28;43436;-77
2023/06/27 12:47:44;;;;;;;1.40;1.40;;;24.10;70.00;;;;;;5053090;28;43822;-77
2023/06/27 12:50:12;;;;;;;1.33;1.33;;;24.20;69.90;;;;;;5054417;28;43580;-76
2023/06/27 12:52:42;;;;;;;1.67;1.67;;;24.20;69.50;;;;;;5054725;28;43463;-78
2023/06/27 12:55:10;;;;;;;1.53;1.53;;;24.40;69.20;;;;;;5058765;28;43752;-77